createdAt,value
2018-01-08T00:00:03.765Z,86.03
2018-01-08T00:01:03.714Z,86.12
2018-01-08T00:02:03.634Z,86.22
2018-01-08T00:03:03.632Z,86.31
2018-01-08T00:04:03.510Z,86.31
2018-01-08T00:05:03.453Z,86.03
2018-01-08T00:06:03.384Z,86.03
2018-01-08T00:07:03.323Z,85.69
2018-01-08T00:08:03.261Z,85.88
2018-01-08T00:09:03.201Z,85.60
2018-01-08T00:10:03.133Z,86.16
2018-01-08T00:11:03.074Z,86.07
2018-01-08T00:12:03.008Z,85.78
2018-01-08T00:13:02.947Z,86.16
2018-01-08T00:14:02.886Z,86.03
2018-01-08T00:15:02.823Z,86.03
2018-01-08T00:16:02.759Z,86.26
2018-01-08T00:17:02.699Z,85.41
2018-01-08T00:18:02.632Z,86.12
2018-01-08T00:19:02.570Z,85.93
2018-01-08T00:20:02.509Z,85.88
2018-01-08T00:21:02.445Z,86.79
2018-01-08T00:22:02.383Z,85.93
2018-01-08T00:23:02.321Z,86.07
2018-01-08T00:24:02.260Z,85.74
2018-01-08T00:25:02.193Z,85.88
2018-01-08T00:26:02.132Z,86.07
2018-01-08T00:27:02.070Z,86.07
2018-01-08T00:28:02.007Z,86.16
2018-01-08T00:29:01.943Z,85.88
2018-01-08T00:30:01.884Z,86.35
2018-01-08T00:31:01.820Z,85.97
2018-01-08T00:32:01.757Z,86.16
2018-01-08T00:33:01.695Z,85.78
2018-01-08T00:34:01.631Z,86.03
2018-01-08T00:35:01.569Z,85.97
2018-01-08T00:36:01.506Z,85.93
2018-01-08T00:37:01.442Z,86.12
2018-01-08T00:38:01.382Z,86.12
2018-01-08T00:39:01.320Z,85.97
2018-01-08T00:40:01.256Z,85.84
2018-01-08T00:41:01.193Z,85.46
2018-01-08T00:42:01.132Z,86.07
2018-01-08T00:43:01.071Z,86.12
2018-01-08T00:44:01.007Z,86.07
2018-01-08T00:45:00.944Z,86.03
2018-01-08T00:46:00.880Z,85.55
2018-01-08T00:47:00.820Z,85.93
2018-01-08T00:48:00.763Z,85.50
2018-01-08T00:49:00.693Z,85.88
2018-01-08T00:50:00.630Z,86.07
2018-01-08T00:51:00.568Z,85.65
2018-01-08T00:52:00.508Z,85.50
2018-01-08T00:53:00.443Z,85.88
2018-01-08T00:54:00.383Z,85.93
2018-01-08T00:55:00.318Z,86.26
2018-01-08T00:56:00.256Z,85.69
2018-01-08T00:57:00.197Z,86.03
2018-01-08T00:58:00.129Z,85.55
2018-01-08T00:59:00.070Z,86.03
2018-01-08T01:00:00.012Z,86.03
2018-01-08T01:00:59.943Z,86.31
2018-01-08T01:01:59.878Z,85.84
2018-01-08T01:02:59.820Z,85.78
2018-01-08T01:03:59.756Z,86.16
2018-01-08T01:04:59.694Z,86.16
2018-01-08T01:05:59.630Z,85.74
2018-01-08T01:06:59.567Z,86.03
2018-01-08T01:07:59.509Z,86.03
2018-01-08T01:08:59.441Z,85.88
2018-01-08T01:09:59.382Z,85.55
2018-01-08T01:10:59.317Z,86.07
2018-01-08T01:11:59.255Z,86.12
2018-01-08T01:12:59.191Z,85.84
2018-01-08T01:13:59.127Z,86.22
2018-01-08T01:14:59.067Z,86.16
2018-01-08T01:15:59.002Z,85.84
2018-01-08T01:16:58.938Z,86.03
2018-01-08T01:17:58.879Z,85.97
2018-01-08T01:18:58.815Z,85.84
2018-01-08T01:19:58.752Z,86.12
2018-01-08T01:20:58.744Z,85.93
2018-01-08T01:21:58.630Z,86.31
2018-01-08T01:22:58.565Z,86.79
2018-01-08T01:23:58.505Z,85.93
2018-01-08T01:24:58.442Z,86.22
2018-01-08T01:25:58.375Z,85.84
2018-01-08T01:26:58.319Z,86.41
2018-01-08T01:27:58.254Z,86.03
2018-01-08T01:28:58.191Z,85.84
2018-01-08T01:29:58.129Z,86.12
2018-01-08T01:30:58.068Z,85.84
2018-01-08T01:31:58.004Z,86.69
2018-01-08T01:32:57.940Z,85.84
2018-01-08T01:33:57.875Z,86.31
2018-01-08T01:34:57.812Z,86.12
2018-01-08T01:35:57.753Z,86.22
2018-01-08T01:36:57.688Z,86.79
2018-01-08T01:37:57.625Z,86.12
2018-01-08T01:38:57.563Z,85.84
2018-01-08T01:39:57.504Z,86.12
2018-01-08T01:40:57.438Z,85.93
2018-01-08T01:41:57.377Z,86.12
2018-01-08T01:42:57.316Z,86.07
2018-01-08T01:43:57.251Z,85.93
2018-01-08T01:44:57.187Z,86.93
2018-01-08T01:45:57.122Z,87.02
2018-01-08T01:46:57.062Z,86.26
2018-01-08T01:47:56.999Z,86.03
2018-01-08T01:48:56.938Z,86.03
2018-01-08T01:49:56.875Z,86.41
2018-01-08T01:50:56.816Z,86.69
2018-01-08T01:51:56.748Z,86.88
2018-01-08T01:52:56.687Z,86.12
2018-01-08T01:53:56.624Z,86.50
2018-01-08T01:54:56.561Z,86.41
2018-01-08T01:55:56.494Z,86.60
2018-01-08T01:56:56.437Z,86.69
2018-01-08T01:57:56.373Z,86.41
2018-01-08T01:58:56.310Z,86.69
2018-01-08T01:59:56.249Z,86.64
2018-01-08T02:00:56.185Z,86.69
2018-01-08T02:01:56.123Z,86.31
2018-01-08T02:02:56.061Z,86.64
2018-01-08T02:03:56.001Z,86.79
2018-01-08T02:04:55.935Z,86.79
2018-01-08T02:05:55.937Z,85.97
2018-01-08T02:06:55.811Z,85.84
2018-01-08T02:07:55.748Z,85.93
2018-01-08T02:08:55.685Z,86.50
2018-01-08T02:09:55.624Z,85.93
2018-01-08T02:10:55.564Z,86.31
2018-01-08T02:11:55.511Z,86.26
2018-01-08T02:12:55.435Z,86.26
2018-01-08T02:13:55.374Z,86.50
2018-01-08T02:14:55.311Z,86.22
2018-01-08T02:15:55.248Z,86.60
2018-01-08T02:16:55.186Z,86.12
2018-01-08T02:17:55.123Z,86.64
2018-01-08T02:18:55.059Z,86.26
2018-01-08T02:19:54.998Z,86.03
2018-01-08T02:20:54.938Z,85.93
2018-01-08T02:21:54.875Z,86.12
2018-01-08T02:22:54.808Z,86.31
2018-01-08T02:23:54.748Z,85.84
2018-01-08T02:24:54.683Z,86.55
2018-01-08T02:25:54.621Z,87.02
2018-01-08T02:26:54.568Z,86.31
2018-01-08T02:27:54.500Z,86.50
2018-01-08T02:28:54.435Z,86.07
2018-01-08T02:29:54.371Z,86.98
2018-01-08T02:30:54.309Z,86.35
2018-01-08T02:31:54.252Z,86.74
2018-01-08T02:32:54.182Z,87.07
2018-01-08T02:33:54.122Z,87.02
2018-01-08T02:34:54.061Z,86.12
2018-01-08T02:35:53.995Z,87.07
2018-01-08T02:36:53.933Z,86.83
2018-01-08T02:37:53.872Z,87.26
2018-01-08T02:38:53.809Z,86.88
2018-01-08T02:39:53.745Z,86.83
2018-01-08T02:40:53.682Z,86.60
2018-01-08T02:41:53.620Z,86.79
2018-01-08T02:42:53.559Z,86.88
2018-01-08T02:43:53.497Z,86.79
2018-01-08T02:44:53.434Z,86.31
2018-01-08T02:45:53.371Z,86.79
2018-01-08T02:46:53.309Z,86.69
2018-01-08T02:47:53.246Z,86.74
2018-01-08T02:48:53.183Z,86.50
2018-01-08T02:49:53.120Z,86.69
2018-01-08T02:50:53.064Z,86.50
2018-01-08T02:51:52.996Z,86.45
2018-01-08T02:52:52.933Z,86.50
2018-01-08T02:53:52.871Z,86.31
2018-01-08T02:54:52.820Z,86.98
2018-01-08T02:55:52.747Z,86.83
2018-01-08T02:56:52.682Z,87.16
2018-01-08T02:57:52.620Z,86.79
2018-01-08T02:58:52.557Z,86.88
2018-01-08T02:59:52.494Z,86.88
2018-01-08T03:00:52.434Z,86.60
2018-01-08T03:01:52.370Z,86.69
2018-01-08T03:02:52.307Z,86.88
2018-01-08T03:03:52.244Z,86.98
2018-01-08T03:04:52.183Z,86.88
2018-01-08T03:05:52.120Z,86.60
2018-01-08T03:06:52.058Z,86.98
2018-01-08T03:07:51.997Z,87.02
2018-01-08T03:08:51.931Z,87.16
2018-01-08T03:09:51.871Z,86.98
2018-01-08T03:10:51.808Z,86.98
2018-01-08T03:11:51.749Z,86.41
2018-01-08T03:12:51.680Z,86.69
2018-01-08T03:13:51.620Z,86.69
2018-01-08T03:14:51.556Z,86.60
2018-01-08T03:15:51.492Z,86.79
2018-01-08T03:16:51.432Z,86.79
2018-01-08T03:17:51.366Z,87.07
2018-01-08T03:18:51.305Z,86.31
2018-01-08T03:19:51.244Z,86.60
2018-01-08T03:20:51.181Z,86.88
2018-01-08T03:21:51.119Z,86.69
2018-01-08T03:22:51.055Z,86.50
2018-01-08T03:23:50.994Z,86.60
2018-01-08T03:24:50.929Z,86.79
2018-01-08T03:25:50.868Z,86.88
2018-01-08T03:26:50.805Z,86.69
2018-01-08T03:27:50.741Z,86.88
2018-01-08T03:28:50.680Z,86.60
2018-01-08T03:29:50.617Z,86.69
2018-01-08T03:30:50.557Z,86.79
2018-01-08T03:31:50.492Z,86.41
2018-01-08T03:32:50.428Z,86.69
2018-01-08T03:33:50.368Z,86.60
2018-01-08T03:34:50.304Z,86.79
2018-01-08T03:35:50.242Z,86.60
2018-01-08T03:36:50.178Z,86.41
2018-01-08T03:37:50.116Z,86.98
2018-01-08T03:38:50.055Z,86.60
2018-01-08T03:39:49.992Z,86.31
2018-01-08T03:40:49.928Z,86.22
2018-01-08T03:41:49.865Z,86.50
2018-01-08T03:42:49.803Z,86.41
2018-01-08T03:43:49.742Z,86.98
2018-01-08T03:44:49.677Z,86.88
2018-01-08T03:45:49.619Z,86.69
2018-01-08T03:46:49.554Z,86.98
2018-01-08T03:47:49.491Z,86.60
2018-01-08T03:48:49.426Z,87.07
2018-01-08T03:49:49.365Z,86.69
2018-01-08T03:50:49.303Z,86.98
2018-01-08T03:51:49.246Z,86.03
2018-01-08T03:52:49.189Z,86.88
2018-01-08T03:53:49.119Z,86.50
2018-01-08T03:54:49.055Z,86.60
2018-01-08T03:55:48.993Z,86.41
2018-01-08T03:56:48.925Z,86.41
2018-01-08T03:57:48.864Z,86.60
2018-01-08T03:58:48.800Z,86.98
2018-01-08T03:59:48.738Z,86.79
2018-01-08T04:00:48.673Z,86.50
2018-01-08T04:01:48.612Z,86.69
2018-01-08T04:02:48.550Z,86.88
2018-01-08T04:03:48.487Z,86.69
2018-01-08T04:04:48.424Z,86.69
2018-01-08T04:05:48.362Z,87.07
2018-01-08T04:06:48.299Z,86.79
2018-01-08T04:07:48.237Z,86.60
2018-01-08T04:08:48.173Z,86.79
2018-01-08T04:09:48.111Z,86.60
2018-01-08T04:10:48.048Z,86.60
2018-01-08T04:11:47.987Z,86.98
2018-01-08T04:12:47.922Z,86.79
2018-01-08T04:13:47.861Z,86.79
2018-01-08T04:14:47.797Z,86.79
2018-01-08T04:15:47.740Z,86.22
2018-01-08T04:16:47.670Z,86.12
2018-01-08T04:17:47.610Z,86.41
2018-01-08T04:18:47.544Z,86.69
2018-01-08T04:19:47.482Z,86.60
2018-01-08T04:20:47.417Z,86.03
2018-01-08T04:21:47.360Z,86.22
2018-01-08T04:22:47.296Z,86.60
2018-01-08T04:23:47.233Z,86.12
2018-01-08T04:24:47.167Z,86.03
2018-01-08T04:25:47.105Z,86.03
2018-01-08T04:26:47.041Z,86.60
2018-01-08T04:27:46.980Z,86.31
2018-01-08T04:28:46.920Z,86.79
2018-01-08T04:29:46.853Z,87.07
2018-01-08T04:30:46.791Z,86.12
2018-01-08T04:31:46.728Z,86.69
2018-01-08T04:32:46.664Z,86.69
2018-01-08T04:33:46.601Z,86.22
2018-01-08T04:34:46.540Z,85.74
2018-01-08T04:35:46.478Z,86.79
2018-01-08T04:36:46.414Z,86.69
2018-01-08T04:37:46.353Z,86.98
2018-01-08T04:38:46.290Z,86.98
2018-01-08T04:39:46.227Z,86.60
2018-01-08T04:40:46.162Z,86.69
2018-01-08T04:41:46.099Z,86.79
2018-01-08T04:42:46.045Z,86.03
2018-01-08T04:43:45.974Z,86.03
2018-01-08T04:44:45.911Z,85.65
2018-01-08T04:45:45.848Z,86.50
2018-01-08T04:46:45.791Z,86.60
2018-01-08T04:47:45.723Z,87.07
2018-01-08T04:48:45.660Z,86.60
2018-01-08T04:49:45.597Z,85.74
2018-01-08T04:50:45.534Z,85.84
2018-01-08T04:51:45.474Z,85.55
2018-01-08T04:52:45.408Z,85.93
2018-01-08T04:53:45.345Z,86.60
2018-01-08T04:54:45.281Z,85.93
2018-01-08T04:55:45.222Z,86.03
2018-01-08T04:56:45.158Z,86.12
2018-01-08T04:57:45.095Z,86.22
2018-01-08T04:58:45.032Z,86.50
2018-01-08T04:59:44.968Z,86.12
2018-01-08T05:00:44.905Z,86.03
2018-01-08T05:01:44.845Z,86.60
2018-01-08T05:02:44.782Z,86.03
2018-01-08T05:03:44.718Z,85.84
2018-01-08T05:04:44.654Z,85.74
2018-01-08T05:05:44.596Z,85.46
2018-01-08T05:06:44.531Z,85.84
2018-01-08T05:07:44.467Z,86.03
2018-01-08T05:08:44.404Z,86.03
2018-01-08T05:09:44.341Z,85.74
2018-01-08T05:10:44.277Z,85.93
2018-01-08T05:11:44.216Z,86.22
2018-01-08T05:12:44.151Z,86.03
2018-01-08T05:13:44.088Z,86.03
2018-01-08T05:14:44.027Z,86.03
2018-01-08T05:15:43.965Z,86.22
2018-01-08T05:16:43.901Z,85.65
2018-01-08T05:17:43.837Z,85.55
2018-01-08T05:18:43.775Z,85.84
2018-01-08T05:19:43.710Z,85.93
2018-01-08T05:20:43.647Z,85.93
2018-01-08T05:21:43.584Z,86.03
2018-01-08T05:22:43.522Z,85.74
2018-01-08T05:23:43.465Z,86.03
2018-01-08T05:24:43.396Z,86.12
2018-01-08T05:25:43.333Z,86.03
2018-01-08T05:26:43.280Z,86.12
2018-01-08T05:27:43.208Z,85.93
2018-01-08T05:28:43.145Z,85.93
2018-01-08T05:29:43.081Z,86.03
2018-01-08T05:30:43.022Z,85.93
2018-01-08T05:31:42.954Z,85.74
2018-01-08T05:32:42.892Z,86.03
2018-01-08T05:33:42.830Z,86.03
2018-01-08T05:34:42.766Z,85.74
2018-01-08T05:35:42.705Z,85.65
2018-01-08T05:36:42.641Z,85.74
2018-01-08T05:37:42.578Z,86.03
2018-01-08T05:38:42.515Z,85.74
2018-01-08T05:39:42.454Z,85.84
2018-01-08T05:40:42.390Z,85.84
2018-01-08T05:41:42.327Z,86.03
2018-01-08T05:42:42.265Z,86.12
2018-01-08T05:43:42.209Z,85.93
2018-01-08T05:44:42.136Z,86.88
2018-01-08T05:45:42.073Z,86.79
2018-01-08T05:46:42.016Z,86.79
2018-01-08T05:47:41.949Z,86.60
2018-01-08T05:48:41.886Z,86.60
2018-01-08T05:49:41.823Z,85.84
2018-01-08T05:50:41.761Z,86.03
2018-01-08T05:51:41.697Z,86.22
2018-01-08T05:52:41.636Z,86.50
2018-01-08T05:53:41.570Z,86.98
2018-01-08T05:54:41.512Z,86.12
2018-01-08T05:55:41.449Z,86.12
2018-01-08T05:56:41.382Z,85.74
2018-01-08T05:57:41.319Z,86.60
2018-01-08T05:58:41.257Z,86.12
2018-01-08T05:59:41.193Z,86.50
2018-01-08T06:00:41.130Z,85.74
2018-01-08T06:01:41.067Z,85.46
2018-01-08T06:02:41.007Z,85.84
2018-01-08T06:03:40.943Z,85.65
2018-01-08T06:04:40.879Z,86.12
2018-01-08T06:05:40.819Z,85.74
2018-01-08T06:06:40.755Z,85.74
2018-01-08T06:07:40.690Z,85.65
2018-01-08T06:08:40.625Z,85.84
2018-01-08T06:09:40.564Z,85.65
2018-01-08T06:10:40.501Z,86.03
2018-01-08T06:11:40.440Z,85.93
2018-01-08T06:12:40.376Z,86.60
2018-01-08T06:13:40.311Z,86.60
2018-01-08T06:14:40.278Z,86.79
2018-01-08T06:15:40.186Z,86.88
2018-01-08T06:16:40.160Z,86.60
2018-01-08T06:17:40.064Z,86.03
2018-01-08T06:18:39.997Z,86.69
2018-01-08T06:19:39.937Z,85.65
2018-01-08T06:20:39.879Z,87.07
2018-01-08T06:21:39.812Z,86.60
2018-01-08T06:22:39.746Z,86.98
2018-01-08T06:23:39.683Z,86.88
2018-01-08T06:24:39.620Z,87.16
2018-01-08T06:25:39.560Z,86.79
2018-01-08T06:26:39.494Z,86.69
2018-01-08T06:27:39.432Z,86.69
2018-01-08T06:28:39.367Z,87.26
2018-01-08T06:29:39.306Z,86.69
2018-01-08T06:30:39.244Z,86.98
2018-01-08T06:31:39.182Z,86.98
2018-01-08T06:32:39.120Z,87.07
2018-01-08T06:33:39.054Z,86.98
2018-01-08T06:34:38.992Z,86.60
2018-01-08T06:35:38.931Z,86.69
2018-01-08T06:36:38.871Z,86.60
2018-01-08T06:37:38.805Z,86.03
2018-01-08T06:38:38.739Z,86.03
2018-01-08T06:39:38.677Z,85.74
2018-01-08T06:40:38.614Z,86.03
2018-01-08T06:41:38.556Z,86.50
2018-01-08T06:42:38.489Z,85.65
2018-01-08T06:43:38.426Z,85.84
2018-01-08T06:44:38.367Z,86.03
2018-01-08T06:45:38.303Z,86.60
2018-01-08T06:46:38.236Z,86.03
2018-01-08T06:47:38.174Z,86.22
2018-01-08T06:48:38.110Z,86.22
2018-01-08T06:49:38.053Z,86.03
2018-01-08T06:50:37.985Z,85.84
2018-01-08T06:51:37.922Z,86.12
2018-01-08T06:52:37.912Z,85.93
2018-01-08T06:53:37.796Z,85.84
2018-01-08T06:54:37.733Z,86.03
2018-01-08T06:55:37.676Z,86.03
2018-01-08T06:56:37.608Z,85.74
2018-01-08T06:57:37.545Z,85.84
2018-01-08T06:58:37.482Z,85.93
2018-01-08T06:59:37.422Z,85.93
2018-01-08T07:00:37.355Z,86.12
2018-01-08T07:01:37.297Z,85.65
2018-01-08T07:02:37.230Z,86.03
2018-01-08T07:03:37.167Z,85.84
2018-01-08T07:04:37.103Z,85.84
2018-01-08T07:05:37.042Z,85.55
2018-01-08T07:06:36.978Z,86.03
2018-01-08T07:07:36.919Z,85.65
2018-01-08T07:08:36.852Z,85.84
2018-01-08T07:09:36.791Z,85.74
2018-01-08T07:10:36.726Z,85.93
2018-01-08T07:11:36.664Z,85.74
2018-01-08T07:12:36.600Z,86.03
2018-01-08T07:13:36.539Z,86.12
2018-01-08T07:14:36.476Z,85.84
2018-01-08T07:15:36.413Z,85.84
2018-01-08T07:16:36.349Z,86.03
2018-01-08T07:17:36.285Z,85.65
2018-01-08T07:18:36.226Z,85.93
2018-01-08T07:19:36.163Z,86.12
2018-01-08T07:20:36.098Z,86.03
2018-01-08T07:21:36.036Z,86.03
2018-01-08T07:22:35.972Z,85.84
2018-01-08T07:23:35.912Z,85.74
2018-01-08T07:24:35.850Z,85.84
2018-01-08T07:25:35.784Z,86.03
2018-01-08T07:26:35.719Z,85.93
2018-01-08T07:27:35.657Z,86.22
2018-01-08T07:28:35.594Z,85.84
2018-01-08T07:29:35.533Z,85.84
2018-01-08T07:30:35.469Z,86.12
2018-01-08T07:31:35.405Z,85.84
2018-01-08T07:32:35.343Z,86.03
2018-01-08T07:33:35.281Z,85.93
2018-01-08T07:34:35.216Z,86.12
2018-01-08T07:35:35.153Z,86.03
2018-01-08T07:36:35.090Z,85.74
2018-01-08T07:37:35.026Z,85.84
2018-01-08T07:38:34.964Z,86.03
2018-01-08T07:39:34.901Z,86.12
2018-01-08T07:40:34.839Z,86.12
2018-01-08T07:41:34.776Z,85.84
2018-01-08T07:42:34.761Z,86.79
2018-01-08T07:43:34.650Z,86.50
2018-01-08T07:44:34.586Z,86.79
2018-01-08T07:45:34.524Z,86.69
2018-01-08T07:46:34.461Z,86.50
2018-01-08T07:47:34.398Z,86.88
2018-01-08T07:48:34.338Z,86.41
2018-01-08T07:49:34.278Z,86.31
2018-01-08T07:50:34.212Z,86.98
2018-01-08T07:51:34.147Z,86.60
2018-01-08T07:52:34.092Z,87.30
2018-01-08T07:53:34.024Z,86.98
2018-01-08T07:54:33.970Z,86.79
2018-01-08T07:55:33.896Z,86.60
2018-01-08T07:56:33.833Z,87.45
2018-01-08T07:57:33.772Z,87.68
2018-01-08T07:58:33.709Z,87.77
2018-01-08T07:59:33.645Z,87.21
2018-01-08T08:00:33.584Z,87.49
2018-01-08T08:01:33.520Z,87.49
2018-01-08T08:02:33.458Z,87.21
2018-01-08T08:03:33.396Z,87.64
2018-01-08T08:04:33.330Z,87.12
2018-01-08T08:05:33.268Z,87.07
2018-01-08T08:06:33.205Z,86.83
2018-01-08T08:07:33.145Z,86.50
2018-01-08T08:08:33.079Z,86.98
2018-01-08T08:09:33.022Z,86.93
2018-01-08T08:10:32.957Z,87.12
2018-01-08T08:11:32.892Z,86.93
2018-01-08T08:12:32.830Z,86.64
2018-01-08T08:13:32.767Z,86.64
2018-01-08T08:14:32.707Z,87.02
2018-01-08T08:15:32.643Z,86.93
2018-01-08T08:16:32.584Z,87.16
2018-01-08T08:17:32.517Z,87.12
2018-01-08T08:18:32.454Z,86.93
2018-01-08T08:19:32.393Z,86.83
2018-01-08T08:20:32.328Z,87.21
2018-01-08T08:21:32.265Z,87.12
2018-01-08T08:22:32.205Z,86.83
2018-01-08T08:23:32.140Z,87.21
2018-01-08T08:24:32.076Z,87.02
2018-01-08T08:25:32.015Z,86.64
2018-01-08T08:26:31.955Z,86.93
2018-01-08T08:27:31.891Z,87.21
2018-01-08T08:28:31.829Z,87.21
2018-01-08T08:29:31.767Z,86.55
2018-01-08T08:30:31.704Z,86.74
2018-01-08T08:31:31.647Z,86.74
2018-01-08T08:32:31.579Z,86.16
2018-01-08T08:33:31.514Z,86.83
2018-01-08T08:34:31.453Z,86.93
2018-01-08T08:35:31.390Z,86.93
2018-01-08T08:36:31.332Z,86.83
2018-01-08T08:37:31.264Z,87.21
2018-01-08T08:38:31.202Z,87.02
2018-01-08T08:39:31.143Z,87.59
2018-01-08T08:40:31.125Z,86.64
2018-01-08T08:41:31.015Z,86.83
2018-01-08T08:42:30.955Z,86.93
2018-01-08T08:43:30.890Z,87.12
2018-01-08T08:44:30.826Z,87.12
2018-01-08T08:45:30.764Z,87.02
2018-01-08T08:46:30.703Z,87.49
2018-01-08T08:47:30.641Z,86.93
2018-01-08T08:48:30.576Z,87.59
2018-01-08T08:49:30.517Z,87.77
2018-01-08T08:50:30.453Z,87.77
2018-01-08T08:51:30.393Z,87.49
2018-01-08T08:52:30.328Z,87.68
2018-01-08T08:53:30.280Z,87.40
2018-01-08T08:54:30.206Z,87.30
2018-01-08T08:55:30.140Z,87.59
2018-01-08T08:56:30.081Z,87.40
2018-01-08T08:57:30.014Z,87.59
2018-01-08T08:58:29.956Z,87.21
2018-01-08T08:59:29.895Z,87.59
2018-01-08T09:00:29.818Z,87.40
2018-01-08T09:01:29.766Z,87.02
2018-01-08T09:02:29.704Z,87.21
2018-01-08T09:03:29.642Z,87.21
2018-01-08T09:04:29.578Z,87.49
2018-01-08T09:05:29.516Z,87.49
2018-01-08T09:06:29.455Z,87.21
2018-01-08T09:07:29.393Z,87.68
2018-01-08T09:08:29.331Z,87.82
2018-01-08T09:09:29.268Z,87.87
2018-01-08T09:10:29.205Z,87.40
2018-01-08T09:11:29.146Z,87.92
2018-01-08T09:12:29.092Z,87.45
2018-01-08T09:13:29.019Z,88.58
2018-01-08T09:14:28.959Z,87.63
2018-01-08T09:15:28.895Z,87.45
2018-01-08T09:16:28.835Z,87.63
2018-01-08T09:17:28.774Z,87.92
2018-01-08T09:18:28.710Z,87.82
2018-01-08T09:19:28.651Z,88.77
2018-01-08T09:20:28.590Z,87.82
2018-01-08T09:21:28.522Z,88.01
2018-01-08T09:22:28.485Z,87.92
2018-01-08T09:23:28.401Z,87.73
2018-01-08T09:24:28.334Z,87.45
2018-01-08T09:25:28.277Z,88.68
2018-01-08T09:26:28.219Z,88.77
2018-01-08T09:27:28.149Z,88.68
2018-01-08T09:28:28.089Z,88.77
2018-01-08T09:29:28.028Z,88.77
2018-01-08T09:30:27.966Z,88.68
2018-01-08T09:31:27.905Z,88.87
2018-01-08T09:32:27.842Z,88.48
2018-01-08T09:33:27.778Z,88.77
2018-01-08T09:34:27.717Z,88.77
2018-01-08T09:35:27.658Z,88.68
2018-01-08T09:36:27.597Z,88.58
2018-01-08T09:37:27.531Z,89.25
2018-01-08T09:38:27.473Z,88.58
2018-01-08T09:39:27.410Z,89.15
2018-01-08T09:40:27.345Z,88.68
2018-01-08T09:41:27.282Z,88.77
2018-01-08T09:42:27.230Z,88.96
2018-01-08T09:43:27.161Z,89.25
2018-01-08T09:44:27.097Z,88.68
2018-01-08T09:45:27.036Z,88.87
2018-01-08T09:46:26.975Z,88.62
2018-01-08T09:47:26.915Z,89.34
2018-01-08T09:48:26.850Z,89.20
2018-01-08T09:49:26.793Z,89.39
2018-01-08T09:50:26.729Z,89.62
2018-01-08T09:51:26.667Z,89.25
2018-01-08T09:52:26.615Z,88.06
2018-01-08T09:53:26.546Z,89.29
2018-01-08T09:54:26.484Z,89.15
2018-01-08T09:55:26.421Z,89.81
2018-01-08T09:56:26.361Z,88.91
2018-01-08T09:57:26.295Z,89.15
2018-01-08T09:58:26.236Z,88.91
2018-01-08T09:59:26.175Z,89.67
2018-01-08T10:00:26.113Z,89.76
2018-01-08T10:01:26.086Z,89.15
2018-01-08T10:02:25.992Z,88.15
2018-01-08T10:03:25.933Z,88.87
2018-01-08T10:04:25.865Z,89.29
2018-01-08T10:05:25.807Z,89.00
2018-01-08T10:06:25.746Z,89.39
2018-01-08T10:07:25.683Z,89.67
2018-01-08T10:08:25.623Z,89.29
2018-01-08T10:09:25.560Z,89.39
2018-01-08T10:10:25.497Z,89.86
2018-01-08T10:11:25.435Z,89.10
2018-01-08T10:12:25.375Z,89.67
2018-01-08T10:13:25.313Z,89.86
2018-01-08T10:14:25.251Z,89.00
2018-01-08T10:15:25.192Z,89.48
2018-01-08T10:16:25.130Z,89.00
2018-01-08T10:17:25.069Z,90.14
2018-01-08T10:18:25.006Z,89.95
2018-01-08T10:19:24.945Z,89.67
2018-01-08T10:20:24.882Z,89.39
2018-01-08T10:21:24.823Z,89.86
2018-01-08T10:22:24.760Z,89.58
2018-01-08T10:23:24.699Z,89.39
2018-01-08T10:24:24.638Z,90.05
2018-01-08T10:25:24.581Z,90.24
2018-01-08T10:26:24.516Z,89.39
2018-01-08T10:27:24.454Z,89.76
2018-01-08T10:28:24.393Z,89.76
2018-01-08T10:29:24.332Z,89.76
2018-01-08T10:30:24.269Z,90.33
2018-01-08T10:31:24.209Z,89.39
2018-01-08T10:32:24.149Z,88.91
2018-01-08T10:33:24.087Z,89.58
2018-01-08T10:34:24.028Z,89.20
2018-01-08T10:35:23.968Z,90.33
2018-01-08T10:36:23.906Z,89.76
2018-01-08T10:37:23.842Z,88.81
2018-01-08T10:38:23.781Z,89.67
2018-01-08T10:39:23.722Z,91.00
2018-01-08T10:40:23.678Z,90.14
2018-01-08T10:41:23.598Z,90.62
2018-01-08T10:42:23.535Z,89.86
2018-01-08T10:43:23.479Z,90.33
2018-01-08T10:44:23.413Z,90.14
2018-01-08T10:45:23.356Z,89.76
2018-01-08T10:46:23.292Z,89.67
2018-01-08T10:47:23.232Z,90.95
2018-01-08T10:48:23.170Z,90.38
2018-01-08T10:49:23.108Z,90.66
2018-01-08T10:50:23.046Z,91.24
2018-01-08T10:51:22.987Z,90.09
2018-01-08T10:52:22.930Z,90.95
2018-01-08T10:53:22.864Z,90.19
2018-01-08T10:54:22.803Z,90.95
2018-01-08T10:55:22.741Z,90.00
2018-01-08T10:56:22.679Z,90.76
2018-01-08T10:57:22.617Z,90.66
2018-01-08T10:58:22.558Z,91.42
2018-01-08T10:59:22.497Z,91.04
2018-01-08T11:00:22.438Z,90.38
2018-01-08T11:01:22.378Z,90.57
2018-01-08T11:02:22.314Z,90.66
2018-01-08T11:03:22.255Z,90.38
2018-01-08T11:04:22.192Z,91.24
2018-01-08T11:05:22.133Z,90.66
2018-01-08T11:06:22.076Z,90.52
2018-01-08T11:07:22.010Z,90.99
2018-01-08T11:08:21.952Z,91.47
2018-01-08T11:09:21.891Z,91.38
2018-01-08T11:10:21.828Z,91.75
2018-01-08T11:11:21.772Z,91.28
2018-01-08T11:12:21.707Z,90.61
2018-01-08T11:13:21.646Z,90.61
2018-01-08T11:14:21.591Z,91.19
2018-01-08T11:15:21.525Z,91.09
2018-01-08T11:16:21.466Z,90.71
2018-01-08T11:17:21.405Z,91.56
2018-01-08T11:18:21.342Z,92.42
2018-01-08T11:19:21.281Z,90.23
2018-01-08T11:20:21.219Z,90.71
2018-01-08T11:21:21.160Z,91.09
2018-01-08T11:22:21.099Z,90.90
2018-01-08T11:23:21.039Z,90.90
2018-01-08T11:24:20.979Z,90.80
2018-01-08T11:25:20.916Z,90.80
2018-01-08T11:26:20.856Z,91.47
2018-01-08T11:27:20.802Z,90.61
2018-01-08T11:28:20.734Z,90.52
2018-01-08T11:29:20.673Z,90.71
2018-01-08T11:30:20.735Z,91.19
2018-01-08T11:31:20.555Z,91.19
2018-01-08T11:32:20.492Z,90.47
2018-01-08T11:33:20.433Z,91.23
2018-01-08T11:34:20.371Z,90.33
2018-01-08T11:35:20.311Z,90.80
2018-01-08T11:36:20.250Z,90.99
2018-01-08T11:37:20.189Z,90.52
2018-01-08T11:38:20.131Z,90.90
2018-01-08T11:39:20.069Z,90.61
2018-01-08T11:40:20.006Z,90.61
2018-01-08T11:41:19.947Z,90.90
2018-01-08T11:42:19.889Z,90.61
2018-01-08T11:43:19.826Z,90.85
2018-01-08T11:44:19.764Z,90.85
2018-01-08T11:45:19.704Z,90.85
2018-01-08T11:46:19.644Z,90.37
2018-01-08T11:47:19.582Z,91.04
2018-01-08T11:48:19.522Z,90.85
2018-01-08T11:49:19.463Z,90.85
2018-01-08T11:50:19.405Z,90.75
2018-01-08T11:51:19.341Z,90.28
2018-01-08T11:52:19.281Z,90.28
2018-01-08T11:53:19.218Z,90.85
2018-01-08T11:54:19.159Z,91.04
2018-01-08T11:55:19.098Z,90.47
2018-01-08T11:56:19.036Z,91.80
2018-01-08T11:57:18.974Z,90.37
2018-01-08T11:58:18.917Z,90.66
2018-01-08T11:59:18.856Z,90.94
2018-01-08T12:00:18.796Z,90.47
2018-01-08T12:01:18.732Z,90.75
2018-01-08T12:02:18.675Z,90.19
2018-01-08T12:03:18.614Z,90.85
2018-01-08T12:04:18.551Z,90.09
2018-01-08T12:05:18.492Z,90.37
2018-01-08T12:06:18.436Z,90.66
2018-01-08T12:07:18.369Z,90.66
2018-01-08T12:08:18.309Z,90.94
2018-01-08T12:09:18.251Z,90.66
2018-01-08T12:10:18.189Z,89.71
2018-01-08T12:11:18.131Z,90.37
2018-01-08T12:12:18.069Z,90.28
2018-01-08T12:13:18.007Z,90.56
2018-01-08T12:14:17.946Z,90.66
2018-01-08T12:15:17.887Z,90.66
2018-01-08T12:16:17.826Z,90.09
2018-01-08T12:17:17.767Z,90.47
2018-01-08T12:18:17.707Z,89.71
2018-01-08T12:19:17.646Z,90.28
2018-01-08T12:20:17.615Z,90.47
2018-01-08T12:21:17.522Z,90.47
2018-01-08T12:22:17.464Z,90.19
2018-01-08T12:23:17.403Z,90.47
2018-01-08T12:24:17.343Z,90.37
2018-01-08T12:25:17.283Z,90.28
2018-01-08T12:26:17.227Z,90.56
2018-01-08T12:27:17.161Z,90.00
2018-01-08T12:28:17.100Z,90.28
2018-01-08T12:29:17.039Z,90.94
2018-01-08T12:30:16.980Z,90.19
2018-01-08T12:31:16.918Z,90.66
2018-01-08T12:32:16.857Z,90.19
2018-01-08T12:33:16.801Z,90.66
2018-01-08T12:34:16.736Z,90.14
2018-01-08T12:35:16.675Z,90.09
2018-01-08T12:36:16.621Z,90.37
2018-01-08T12:37:16.554Z,90.28
2018-01-08T12:38:16.497Z,90.09
2018-01-08T12:39:16.434Z,89.90
2018-01-08T12:40:16.376Z,90.19
2018-01-08T12:41:16.315Z,90.09
2018-01-08T12:42:16.253Z,89.61
2018-01-08T12:43:16.192Z,90.56
2018-01-08T12:44:16.131Z,90.09
2018-01-08T12:45:16.072Z,90.80
2018-01-08T12:46:16.011Z,90.19
2018-01-08T12:47:15.953Z,90.89
2018-01-08T12:48:15.891Z,89.94
2018-01-08T12:49:15.828Z,90.99
2018-01-08T12:50:15.770Z,90.23
2018-01-08T12:51:15.710Z,90.04